Flight Track Log - Related Links

Times and Time Zones

All times are in EDT time to prevent confusion due to time zone crossing. See the THY2481 flight status page for this flight to view local times or setup timezone preferences in your user account.

Time Position Orientation Groundspeed Altitude Reporting Facility
EDT Latitude Longitude Course Direction KTS MPH feet Rate Location/Type
Fri 05:38:00 AM 37.4372 34.6067 311° West  Level Estimated
Fri 05:39:00 AM 37.4938 34.5219 310° West  Level Estimated
Fri 05:40:00 AM 37.5503 34.4370 310° West  Level Estimated
Fri 05:41:00 AM 37.6068 34.3520 310° West  Level Estimated
Fri 05:42:00 AM 37.6632 34.2668 310° West  Level Estimated
Fri 05:43:00 AM 37.7196 34.1815 310° West  Level Estimated
Fri 05:44:00 AM 37.7759 34.0961 310° West  Level Estimated
Fri 05:45:00 AM 37.8321 34.0105 310° West  Level Estimated
Fri 05:46:00 AM 37.8883 33.9249 310° West  Level Estimated
Fri 05:47:00 AM 37.9444 33.8390 310° West  Level Estimated
Fri 05:48:00 AM 38.0005 33.7531 310° West  Level Estimated
Fri 05:49:00 AM 38.0564 33.6670 310° West  Level Estimated
Fri 05:50:00 AM 38.1124 33.5808 310° West  Level Estimated
Fri 05:51:00 AM 38.1682 33.4944 309° West  Level Estimated
Fri 05:52:00 AM 38.2240 33.4080 309° West  Level Estimated
Fri 05:53:00 AM 38.2798 33.3214 309° West  Level Estimated
Fri 05:54:00 AM 38.3354 33.2346 309° West  Level Estimated
Fri 05:55:00 AM 38.3911 33.1477 309° West  Level Estimated
Fri 05:56:00 AM 38.4466 33.0607 309° West  Level Estimated
Fri 05:57:00 AM 38.5021 32.9736 309° West  Level Estimated
Fri 05:58:00 AM 38.5575 32.8863 309° West  Level Estimated
Fri 05:59:00 AM 38.6129 32.7989 309° West  Level Estimated
Fri 06:00:00 AM 38.6681 32.7113 309° West  Level Estimated
Fri 06:01:00 AM 38.7234 32.6237 309° West  Level Estimated
Fri 06:02:00 AM 38.7785 32.5359 309° West  Level Estimated
Fri 06:03:00 AM 38.8336 32.4479 309° West  Level Estimated
Fri 06:04:00 AM 38.8886 32.3598 309° West  Level Estimated
Fri 06:05:00 AM 38.9436 32.2716 309° West  Level Estimated
Fri 06:06:00 AM 38.9985 32.1832 309° West  Level Estimated
Fri 06:07:00 AM 39.0533 32.0947 309° West  Level Estimated
Fri 06:08:00 AM 39.1081 32.0061 309° West  Level Estimated
Fri 06:09:00 AM 39.1627 31.9173 308° West  Level Estimated
Fri 06:10:00 AM 39.2174 31.8284 308° West  Level Estimated
Fri 06:11:00 AM 39.2719 31.7393 308° West  Level Estimated
Fri 06:12:00 AM 39.3264 31.6502 308° West  Level Estimated
Fri 06:13:00 AM 39.3808 31.5608 308° West  Level Estimated
Fri 06:14:00 AM 39.4352 31.4713 308° West  Level Estimated
Fri 06:15:00 AM 39.4894 31.3817 308° West  Level Estimated
Fri 06:16:00 AM 39.5437 31.2920 308° West  Level Estimated
Fri 06:17:00 AM 39.5978 31.2021 308° West  Level Estimated
Fri 06:18:00 AM 39.6519 31.1121 308° West  Level Estimated
Fri 06:19:00 AM 39.7059 31.0219 308° West  Level Estimated
Fri 06:20:00 AM 39.7598 30.9316 308° West  Level Estimated
Fri 06:21:00 AM 39.8137 30.8411 308° West  Level Estimated
Fri 06:22:00 AM 39.8675 30.7505 308° West  Level Estimated
Fri 06:23:00 AM 39.9212 30.6598 308° West  Level Estimated
Fri 06:24:00 AM 39.9748 30.5689 308° West  Level Estimated
Fri 06:25:00 AM 40.0284 30.4779 308° West  Level Estimated
Fri 06:26:00 AM 40.0819 30.3867 308° West  Level Estimated
Fri 06:27:00 AM 40.1353 30.2954 307° West  Level Estimated
Fri 06:28:00 AM 40.1887 30.2040 307° West  Level Estimated
Fri 06:29:00 AM 40.2420 30.1124 307° West  Level Estimated
Fri 06:30:00 AM 40.2952 30.0207 307° West  Level Estimated
Fri 06:31:00 AM 40.3484 29.9288 307° West  Level Estimated
Fri 06:32:00 AM 40.4015 29.8367 307° West  Level Estimated
Fri 06:33:00 AM 40.4545 29.7446 307° West  Level Estimated
Fri 06:34:00 AM 40.5074 29.6523 307° West  Level Estimated
Fri 06:35:00 AM 40.5602 29.5598 307° West  Level Estimated
Fri 06:36:00 AM 40.6130 29.4672 307° West  Level Estimated
Fri 06:37:00 AM 40.6657 29.3744 307° West  Level Estimated
Fri 06:38:00 AM 40.7184 29.2815 307° West  Level Estimated
Fri 06:39:00 AM 40.7709 29.1885 307° West  Level Estimated
Fri 06:40:00 AM 40.8234 29.0953 307° West  Level Estimated
Fri 06:41:00 AM 40.8758 29.0019 307° West  Level Estimated
Fri 06:42:00 AM 40.9282 28.9084 307° West  Level Estimated
Fri 06:43:00 AM 40.9769 28.8211 306° West  Level Estimated
Fri 06:44:00 AM 40.9769 28.8211 21° North  Level Estimated
Fri 06:45:00 AM 40.9769 28.8211 21° North  Level Estimated
Fri 06:46:00 AM 40.9769 28.8211 21° North  Level Estimated
Fri 06:47:00 AM 40.9769 28.8211 21° North  Level Estimated
Fri 06:48:00 AM 40.9769 28.8211 21° North  Level Estimated
Fri 06:49:00 AM 40.9769 28.8211 21° North  Level Estimated
Fri 06:50:00 AM 40.9769 28.8211 21° North  Level Estimated
Fri 06:51:00 AM 40.9769 28.8211 21° North  Level Estimated
Fri 06:52:00 AM 40.9769 28.8211 21° North  Level Estimated
Fri 06:53:00 AM 40.9769 28.8211 21° North  Level Estimated
Fri 06:54:00 AM 40.9769 28.8211 21° North  Level Estimated
Fri 06:55:00 AM 40.9769 28.8211 21° North  Level Estimated
Fri 06:56:00 AM 40.9769 28.8211 21° North  Level Estimated
Fri 06:57:00 AM 40.9769 28.8211 21° North  Level Estimated
Fri 06:58:00 AM 40.9769 28.8211 21° North  Level Estimated
Fri 06:59:00 AM 40.9769 28.8211 21° North  Level Estimated

Login

Don't have an account? Register now (free) for customized features, flight alerts, and more!